3IN6 weather

Holloway Field
New Washington, Indiana, United States

Public forecast

Using degrees Fahrenheit for public forecast. Weather courtesy of forecast.io.

METAR (pilot weather report)

Closest report is Madison Municipal Airport, 10.4 nm (19.3 km) N. Retrieved 2019/01/17 08:35 UTC (3 minutes ago):

KIMS 170835Z AUTO 10005KT 5SM SCT004 BKN022 OVC027 01/01 A3021 RMK AO1

TAF (pilot weather forecast)

Closest forecast is Louisville International Standiford Field, 27.1 nm (50.2 km) SSW. Retrieved 2019/01/17 06:42 UTC (2 hours ago):

TAF KSDF 170540Z 1706/1812 14005KT P6SM BKN029 FM170700 15006KT P6SM OVC035 FM171300 15007KT 4SM -SHRA OVC025 TEMPO 1713/1717 2SM SHRA BR OVC015 FM171800 19007KT 2SM SHRA BR OVC008 FM180100 29008KT 6SM BR VCSH OVC007 FM180800 29007KT P6SM OVC015